Terminal Aerodrome Forecast
Issued by NWS Chicago, IL

Home | Current Version | Previous Version | Graphics & Text | Print | Product List | Glossary On
Versions: 1 2 3 4 5 6 7 8 9 10 11 12 13 14 15 16 17 18 19 20 21 22 23 24 25 26
633
FTUS43 KLOT 061830 AAA
TAFRFD
TAF AMD
KRFD 061830Z 0619/0718 25010KT P6SM SCT020
     FM070000 22006KT P6SM FEW020 BKN200
     FM070600 21010KT P6SM OVC070
     FM071300 23012G20KT P6SM SCT100 BKN200=

USA.gov is the U.S. government's official web portal to all federal, state and local government web resources and services.